Latest Weather Observations for Bellambi

IDN60801

Issued at 4:03 pm EDT Saturday 28 March 2015 (issued every 30 minutes, with the page automatically refreshed every 10 minutes)

About weather observations | Map of weather stations | Latest weather observations for NSW | Other Formats
Station Details ID: 068228 Name: BELLAMBI AWS Lat: -34.37 Lon: 150.93 Height: 10.0 m
Data from the previous 72 hours. | See also: Recent months at Bellambi
Date/Time
EDT
Temp
°C
App
Temp
°C
Dew
Point
Rel
Hum
%
Delta-T
°C
Wind Press
QNH
hPa
Press
MSL
hPa
Rain
since 9 am
mm
Dir
 
Spd
km/h
Gust
km/h
Spd
kts
Gust
kts
28/04:00pm 20.2 17.1 11.7 58 4.7 SE 19 24 10 13 - - 0.0
28/03:30pm 20.8 18.1 11.7 56 5.1 SE 17 19 9 10 - - 0.0
28/03:00pm 20.8 18.2 12.0 57 4.9 SE 17 20 9 11 - - 0.0
28/02:30pm 21.0 18.4 11.9 56 5.1 SE 17 20 9 11 - - 0.0
28/02:00pm 20.8 17.6 11.4 55 5.2 SE 19 22 10 12 - - 0.0
28/01:30pm 21.0 17.9 11.6 55 5.2 SSE 19 24 10 13 - - 0.0
28/01:00pm 20.9 17.5 10.7 52 5.6 SSE 19 22 10 12 - - 0.0
28/12:30pm 20.9 17.5 10.4 51 5.7 SSE 19 22 10 12 - - 0.0
28/12:00pm 20.6 17.3 9.5 49 5.9 S 17 22 9 12 - - 0.0
28/11:30am 20.5 17.3 8.5 46 6.3 S 15 19 8 10 - - 0.0
28/11:00am 20.7 18.2 9.6 49 5.9 S 13 19 7 10 - - 0.0
28/10:30am 20.1 16.7 7.8 45 6.3 SSW 15 20 8 11 - - 0.0
28/10:00am 19.9 16.3 6.6 42 6.7 SSW 15 20 8 11 - - 0.0
28/09:30am 19.5 16.2 6.6 43 6.5 SW 13 20 7 11 - - 0.0
28/09:00am 19.0 16.9 6.5 44 6.2 WSW 7 13 4 7 - - 0.0
28/08:30am 17.7 15.7 7.2 50 5.3 W 7 11 4 6 - - 0.0
28/08:00am 15.6 13.2 6.9 56 4.3 WNW 9 11 5 6 - - 0.0
28/07:30am 14.7 11.7 5.8 55 4.2 WNW 11 13 6 7 - - 0.0
28/07:00am 14.4 11.3 5.5 55 4.2 WNW 11 13 6 7 - - 0.0
28/06:30am 14.6 11.5 5.4 54 4.3 W 11 13 6 7 - - 0.0
28/05:30am 15.5 12.9 6.0 53 4.6 WNW 9 13 5 7 - - 0.0
28/05:00am 15.9 12.7 5.2 49 5.1 W 11 15 6 8 - - 0.0
28/04:30am 15.9 12.3 4.9 48 5.2 WSW 13 15 7 8 - - 0.0
28/04:00am 16.1 12.8 4.8 47 5.3 WSW 11 15 6 8 - - 0.0
28/03:30am 16.5 13.3 4.9 46 5.5 WSW 11 15 6 8 - - 0.0
28/03:00am 16.6 13.3 4.6 45 5.7 WSW 11 13 6 7 - - 0.0
28/02:30am 17.0 13.7 4.7 44 5.8 WSW 11 17 6 9 - - 0.0
28/02:00am 17.3 13.6 4.6 43 6.0 WSW 13 20 7 11 - - 0.0
28/01:30am 17.8 13.7 4.4 41 6.4 WSW 15 20 8 11 - - 0.0
28/01:00am 18.1 13.1 4.7 41 6.4 WSW 20 28 11 15 - - 0.0
28/12:30am 18.2 13.2 4.4 40 6.6 WSW 20 30 11 16 - - 0.0
 
Date/Time
EDT
Temp
°C
App
Temp
°C
Dew
Point
Rel
Hum
%
Delta-T
°C
Wind Press
QNH
hPa
Press
MSL
hPa
Rain
since 9 am
mm
Dir
 
Spd
km/h
Gust
km/h
Spd
kts
Gust
kts
27/11:30pm 18.5 13.6 4.3 39 6.8 WSW 19 26 10 14 - - 0.0
27/11:00pm 18.9 13.8 3.9 37 7.1 W 20 32 11 17 - - 0.0
27/10:30pm 19.3 13.8 3.9 36 7.3 W 22 32 12 17 - - 0.0
27/10:00pm 19.3 13.8 3.9 36 7.3 WNW 22 32 12 17 - - 0.0
27/09:30pm 20.0 14.1 3.7 34 7.7 WNW 24 43 13 23 - - 0.0
27/09:00pm 20.3 14.0 3.5 33 8.0 WNW 26 35 14 19 - - 0.0
27/08:30pm 20.5 15.3 3.3 32 8.1 WNW 20 35 11 19 - - 0.0
27/08:00pm 20.7 16.0 3.4 32 8.2 W 17 30 9 16 - - 0.0
27/07:30pm 21.0 16.7 3.2 31 8.4 WNW 15 22 8 12 - - 0.0
27/07:00pm 21.5 17.2 3.2 30 8.7 W 15 26 8 14 - - 0.0
27/06:30pm 22.6 17.9 3.2 28 9.3 W 17 28 9 15 - - 0.0
27/06:00pm 23.6 18.9 3.0 26 9.9 WSW 17 24 9 13 - - 0.0
27/05:30pm 24.1 19.1 3.4 26 10.1 WSW 19 33 10 18 - - 0.0
27/05:00pm 24.3 19.3 3.6 26 10.1 W 19 26 10 14 - - 0.0
27/04:30pm 24.6 19.6 4.4 27 10.1 WSW 20 28 11 15 - - 0.0
27/04:00pm 24.4 17.9 2.5 24 10.5 WSW 26 39 14 21 - - 0.0
27/03:30pm 24.6 19.4 3.3 25 10.4 WSW 20 33 11 18 - - 0.0
27/03:14pm 24.4 18.2 1.9 23 10.7 W 24 50 13 27 - - 0.0
27/03:00pm 24.8 19.6 3.5 25 10.4 WSW 20 33 11 18 - - 0.0
27/02:30pm 24.6 19.7 4.9 28 9.9 W 20 30 11 16 - - 0.0
27/02:00pm 24.2 19.2 4.6 28 9.8 W 20 32 11 17 - - 0.0
27/01:30pm 23.4 16.5 2.8 26 9.9 WSW 28 39 15 21 - - 0.0
27/01:00pm 23.2 18.2 4.7 30 9.2 W 20 32 11 17 - - 0.0
27/12:30pm 22.2 15.3 2.8 28 9.2 W 28 43 15 23 - - 0.0
27/12:00pm 22.3 16.4 3.9 30 8.9 W 24 35 13 19 - - 0.0
27/11:30am 21.4 14.5 4.5 33 8.2 W 30 44 16 24 - - 0.0
27/11:06am 20.6 13.5 3.3 32 8.2 WSW 30 48 16 26 - - 0.0
27/11:00am 20.7 14.4 3.9 33 8.1 WSW 26 43 14 23 - - 0.0
27/10:36am 20.0 13.3 3.7 34 7.7 WSW 28 46 15 25 - - 0.0
27/10:30am 20.0 14.1 3.7 34 7.7 WSW 24 41 13 22 - - 0.0
27/10:02am 19.0 12.2 3.2 35 7.4 W 28 46 15 25 - - 0.0
27/10:00am 18.8 11.7 3.4 36 7.2 W 30 46 16 25 - - 0.0
27/09:42am 18.3 11.5 3.0 36 7.1 W 28 48 15 26 - - 0.0
27/09:30am 18.0 11.7 3.5 38 6.8 W 26 43 14 23 - - 0.0
27/09:18am 17.5 10.6 2.7 37 6.8 W 28 48 15 26 - - 0.0
27/09:00am 17.1 10.9 2.3 37 6.7 W 24 35 13 19 - - 0.0
27/08:30am 16.3 8.5 2.0 38 6.4 WSW 32 44 17 24 - - 0.0
27/08:04am 15.9 7.5 1.6 38 6.3 WSW 35 63 19 34 - - 0.0
27/08:00am 15.8 8.0 1.9 39 6.2 SW 32 48 17 26 - - 0.0
27/07:31am 15.4 8.3 1.5 39 6.1 WSW 28 48 15 26 - - 0.0
27/07:30am 15.5 8.8 1.3 38 6.2 WSW 26 48 14 26 - - 0.0
27/07:00am 15.4 7.3 0.8 37 6.3 W 33 54 18 29 - - 0.0
27/06:55am 15.4 6.9 0.8 37 6.3 W 35 54 19 29 - - 0.0
27/06:53am 15.4 6.9 0.8 37 6.3 WSW 35 54 19 29 - - 0.0
27/06:34am 15.4 8.2 0.8 37 6.3 SW 28 48 15 26 - - 0.0
27/06:30am 15.3 8.5 0.7 37 6.3 WSW 26 48 14 26 - - 0.0
27/06:10am 15.4 8.2 0.4 36 6.4 SW 28 46 15 25 - - 0.0
27/06:00am 15.4 9.3 0.4 36 6.4 WSW 22 39 12 21 - - 0.0
27/05:30am 15.9 11.8 2.0 39 6.2 SSW 13 22 7 12 - - 0.0
27/05:00am 15.7 9.1 -0.1 34 6.7 WSW 24 43 13 23 - - 0.0
27/04:30am 15.9 8.2 -0.3 33 6.9 W 30 50 16 27 - - 0.0
27/04:28am 15.9 8.6 -0.3 33 6.9 W 28 50 15 27 - - 0.0
27/04:00am 16.4 9.4 -0.3 32 7.1 WSW 26 35 14 19 - - 0.0
27/03:30am 16.1 9.9 -0.6 32 7.0 SW 22 37 12 20 - - 0.0
27/03:00am 15.9 10.6 -0.8 32 7.0 WSW 17 22 9 12 - - 0.0
27/02:30am 16.1 9.8 -1.0 31 7.1 SW 22 35 12 19 - - 0.0
27/02:00am 16.1 10.0 0.3 34 6.8 SSW 22 39 12 21 - - 0.0
27/01:30am 15.8 10.0 0.0 34 6.7 SSW 20 32 11 17 - - 0.0
27/01:00am 16.5 10.6 -1.1 30 7.4 SW 20 28 11 15 - - 0.0
27/12:30am 16.7 11.0 -0.9 30 7.4 WSW 19 37 10 20 - - 0.0
27/12:00am 16.6 12.9 -0.1 32 7.1 SW 9 19 5 10 - - 0.0
 
Date/Time
EDT
Temp
°C
App
Temp
°C
Dew
Point
Rel
Hum
%
Delta-T
°C
Wind Press
QNH
hPa
Press
MSL
hPa
Rain
since 9 am
mm
Dir
 
Spd
km/h
Gust
km/h
Spd
kts
Gust
kts
26/11:30pm 17.7 12.4 -0.5 29 7.8 SSW 17 28 9 15 - - 0.0
26/11:00pm 18.0 12.1 -0.8 28 8.0 SW 20 43 11 23 - - 0.0
26/10:30pm 18.1 13.6 -0.2 29 7.9 SW 13 20 7 11 - - 0.0
26/10:00pm 18.8 15.2 0.9 30 8.0 SW 9 15 5 8 - - 0.0
26/09:30pm 19.7 14.5 2.6 32 7.9 WSW 19 28 10 15 - - 0.0
26/09:00pm 20.2 15.3 4.3 35 7.7 WSW 19 26 10 14 - - 0.0
26/08:30pm 20.5 16.5 4.9 36 7.6 WSW 15 22 8 12 - - 0.0
26/08:00pm 20.7 16.7 4.7 35 7.8 WSW 15 20 8 11 - - 0.0
26/07:30pm 20.7 17.8 6.6 40 7.1 WSW 11 17 6 9 - - 0.0
26/07:00pm 22.7 19.4 4.7 31 8.9 W 11 17 6 9 - - 0.0
26/06:30pm 24.0 20.9 5.4 30 9.4 W 11 17 6 9 - - 0.0
26/06:00pm 24.7 20.9 6.0 30 9.6 WNW 15 22 8 12 - - 0.0
26/05:30pm 24.2 21.6 6.0 31 9.3 WNW 9 17 5 9 - - 0.0
26/05:00pm 24.6 20.8 5.9 30 9.6 NW 15 26 8 14 - - 0.0
26/04:30pm 24.2 19.9 3.5 26 10.1 WNW 15 24 8 13 - - 0.0
26/04:00pm 24.3 19.8 4.1 27 10.0 W 17 24 9 13 - - 0.0
26/03:30pm 24.5 20.1 4.8 28 9.9 WNW 17 26 9 14 - - 0.0
26/03:00pm 24.8 20.4 4.5 27 10.1 WNW 17 28 9 15 - - 0.0
26/02:30pm 24.9 20.0 7.1 32 9.3 NW 22 32 12 17 - - 0.0
26/02:00pm 24.5 20.1 7.6 34 8.9 NW 20 37 11 20 - - 0.0
26/01:30pm 24.0 19.4 5.8 31 9.3 WNW 19 30 10 16 - - 0.0
26/01:00pm 24.2 19.8 7.4 34 8.8 NW 20 33 11 18 - - 0.0
26/12:30pm 23.3 18.5 7.4 36 8.3 WNW 22 35 12 19 - - 0.0
26/12:00pm 22.7 17.6 7.7 38 7.8 WNW 24 35 13 19 - - 0.0
26/11:30am 23.7 18.3 8.2 37 8.2 WNW 26 37 14 20 - - 0.0
26/11:00am 22.0 20.0 10.2 47 6.4 W 11 20 6 11 - - 0.0
26/10:30am 22.8 21.7 13.0 54 5.6 SW 11 19 6 10 - - 0.0
26/10:00am 22.0 20.9 10.5 48 6.3 W 7 19 4 10 - - 0.0
26/09:30am 20.8 18.0 11.2 54 5.3 SSW 17 22 9 12 - - 0.0
26/09:00am 19.8 17.3 11.0 57 4.8 SSW 15 19 8 10 - - 0.2
26/08:30am 19.4 18.3 11.9 62 4.2 SSE 9 17 5 9 - - 0.2
26/08:00am 18.1 16.3 13.2 73 2.8 WNW 15 24 8 13 - - 0.2
26/07:30am 18.0 16.0 13.9 77 2.3 WNW 17 22 9 12 - - 0.2
26/07:00am 17.8 15.4 13.7 77 2.3 NW 19 24 10 13 - - 0.2
26/06:30am 17.7 15.2 13.6 77 2.3 NW 19 26 10 14 - - 0.2
26/06:00am 17.7 15.5 13.4 76 2.4 NW 17 20 9 11 - - 0.2
26/05:30am 17.7 15.9 13.4 76 2.4 NW 15 19 8 10 - - 0.2
26/05:00am 17.8 15.3 13.5 76 2.4 NW 19 24 10 13 - - 0.2
26/04:30am 17.6 15.8 13.3 76 2.4 NW 15 20 8 11 - - 0.2
26/04:00am 17.8 15.3 13.5 76 2.4 NW 19 22 10 12 - - 0.2
26/03:30am 18.0 15.9 13.5 75 2.5 NW 17 20 9 11 - - 0.2
26/03:00am 18.3 16.6 13.6 74 2.7 NW 15 20 8 11 - - 0.2
26/02:30am 18.7 17.8 13.6 72 2.9 NW 11 17 6 9 - - 0.2
26/02:00am 19.2 18.4 14.0 72 3.0 NW 11 15 6 8 - - 0.2
26/01:30am 19.3 17.4 14.3 73 2.9 NNW 17 19 9 10 - - 0.2
26/01:00am 19.4 18.3 14.2 72 3.0 NNW 13 17 7 9 - - 0.2
26/12:30am 19.7 17.9 14.5 72 3.0 N 17 20 9 11 - - 0.2
26/12:00am 19.3 18.5 14.1 72 3.0 NW 11 13 6 7 - - 0.2
 
Date/Time
EDT
Temp
°C
App
Temp
°C
Dew
Point
Rel
Hum
%
Delta-T
°C
Wind Press
QNH
hPa
Press
MSL
hPa
Rain
since 9 am
mm
Dir
 
Spd
km/h
Gust
km/h
Spd
kts
Gust
kts
25/11:30pm 19.4 19.0 14.0 71 3.1 NW 9 13 5 7 - - 0.2
25/11:00pm 20.2 17.7 13.6 66 3.8 NE 19 24 10 13 - - 0.2
25/10:30pm 20.1 17.5 13.8 67 3.6 NE 20 24 11 13 - - 0.2
25/10:00pm 20.2 17.7 13.6 66 3.8 NE 19 22 10 12 - - 0.2
25/09:30pm 20.1 17.6 13.6 66 3.7 ENE 19 22 10 12 - - 0.2
25/09:00pm 20.1 18.3 13.3 65 3.9 ENE 15 20 8 11 - - 0.2
25/08:30pm 20.0 18.3 13.7 67 3.6 E 15 19 8 10 - - 0.2
25/08:00pm 20.1 18.8 13.6 66 3.7 E 13 17 7 9 - - 0.2
25/07:30pm 20.1 18.7 13.3 65 3.9 ESE 13 17 7 9 - - 0.2
25/07:00pm 20.0 18.5 13.2 65 3.9 SE 13 17 7 9 - - 0.2
25/06:30pm 19.9 18.0 13.1 65 3.9 SE 15 19 8 10 - - 0.2
25/06:00pm 20.1 18.2 13.1 64 4.0 SE 15 19 8 10 - - 0.2
25/05:30pm 20.5 18.9 13.9 66 3.8 SSE 15 20 8 11 - - 0.2
25/05:00pm 20.3 17.8 14.2 68 3.5 SSE 20 28 11 15 - - 0.2
25/04:30pm 20.5 18.1 14.4 68 3.6 SSE 20 26 11 14 - - 0.2

Other Formats:

Comma delimited format used in spreadsheet applications
http://www.bom.gov.au/fwo/IDN60801/IDN60801.94749.axf

JavaScript Object Notation format (JSON) in row-major order
http://www.bom.gov.au/fwo/IDN60801/IDN60801.94749.json